Time;durP1;ratioP1;P1;durP2;ratioP2;P2;SDS_P1;SDS_P2;PMS_P1;PMS_P2;Temp;Humidity;BMP_temperature;BMP_pressure;BME280_temperature;BME280_humidity;BME280_pressure;Samples;Min_cycle;Max_cycle;Signal;HPM_P1;HPM_P2
2023/02/15 00:01:09;;;;;;;4.10;1.60;;;;;;;0.67;100.00;100457.75;104330;1305;544983;-67
2023/02/15 00:03:37;;;;;;;4.80;1.80;;;;;;;0.69;100.00;100461.27;107461;1285;25454;-67
2023/02/15 00:06:06;;;;;;;3.70;1.10;;;;;;;0.71;100.00;100461.75;109052;1285;22387;-68
2023/02/15 00:08:36;;;;;;;4.70;1.60;;;;;;;0.80;100.00;100459.58;109710;1286;22449;-68
2023/02/15 00:11:06;;;;;;;4.30;1.60;;;;;;;0.82;100.00;100460.34;109715;1286;22232;-68
2023/02/15 00:13:36;;;;;;;4.20;1.30;;;;;;;0.84;100.00;100463.25;109572;1284;187450;-68
2023/02/15 00:16:05;;;;;;;4.50;1.60;;;;;;;0.87;100.00;100463.32;109837;1284;23089;-68
2023/02/15 00:18:36;;;;;;;4.20;1.40;;;;;;;0.88;100.00;100458.39;109852;1284;22452;-67
2023/02/15 00:21:07;;;;;;;3.30;1.40;;;;;;;0.89;100.00;100455.67;109884;1284;22263;-68
2023/02/15 00:23:35;;;;;;;4.30;1.70;;;;;;;0.89;100.00;100456.20;109825;1284;22353;-67
2023/02/15 00:26:08;;;;;;;3.40;1.20;;;;;;;0.89;100.00;100457.33;109801;1277;22295;-69
2023/02/15 00:28:36;;;;;;;3.80;1.00;;;;;;;0.90;100.00;100457.70;109814;1284;22520;-68
2023/02/15 00:31:05;;;;;;;3.60;1.40;;;;;;;0.97;100.00;100458.71;109868;1284;22217;-69
2023/02/15 00:33:36;;;;;;;4.10;1.50;;;;;;;0.97;100.00;100464.12;109749;1284;22838;-68
2023/02/15 00:36:08;;;;;;;7.10;1.70;;;;;;;0.94;100.00;100460.35;109861;1279;22163;-68
2023/02/15 00:38:36;;;;;;;2.40;1.30;;;;;;;0.93;100.00;100465.15;108083;1276;22542;-67
2023/02/15 00:41:06;;;;;;;3.80;1.40;;;;;;;0.91;100.00;100466.37;106893;1274;22553;-67
2023/02/15 00:43:35;;;;;;;2.50;1.10;;;;;;;0.89;100.00;100467.54;109741;1284;22232;-68
2023/02/15 00:46:05;;;;;;;3.20;1.20;;;;;;;0.86;100.00;100465.66;109555;1284;23041;-68
2023/02/15 00:48:34;;;;;;;3.80;1.10;;;;;;;0.85;100.00;100468.70;109761;1280;23104;-68
2023/02/15 00:51:04;;;;;;;2.80;1.10;;;;;;;0.86;100.00;100473.91;109818;1279;22278;-68
2023/02/15 00:53:32;;;;;;;3.80;1.40;;;;;;;0.91;100.00;100472.02;109781;1284;22225;-68
2023/02/15 00:56:01;;;;;;;3.20;0.90;;;;;;;0.92;100.00;100473.43;109821;1280;22212;-67
2023/02/15 00:58:30;;;;;;;2.50;0.90;;;;;;;0.90;100.00;100474.11;109742;1279;22406;-67
2023/02/15 01:01:08;;;;;;;2.00;0.70;;;;;;;0.88;100.00;100473.10;109782;1277;23002;-68
2023/02/15 01:03:36;;;;;;;3.40;0.90;;;;;;;0.89;100.00;100477.88;109788;1282;22429;-68
2023/02/15 01:06:04;;;;;;;3.60;1.00;;;;;;;0.87;100.00;100474.36;109811;1277;22942;-68
2023/02/15 01:08:33;;;;;;;2.30;1.00;;;;;;;0.86;100.00;100474.67;109777;1278;22363;-68
2023/02/15 01:11:09;;;;;;;3.60;1.30;;;;;;;0.84;100.00;100473.11;108686;1284;22546;-67
2023/02/15 01:13:40;;;;;;;3.80;1.20;;;;;;;0.83;100.00;100471.04;109233;1285;23140;-67
2023/02/15 01:16:08;;;;;;;4.90;1.40;;;;;;;0.88;100.00;100472.10;109666;1279;23011;-68
2023/02/15 01:18:37;;;;;;;3.90;1.00;;;;;;;0.88;100.00;100473.36;109836;1282;22447;-67
2023/02/15 01:21:10;;;;;;;4.00;0.90;;;;;;;0.85;100.00;100470.98;109765;1279;22283;-68
2023/02/15 01:23:38;;;;;;;2.50;0.80;;;;;;;0.81;100.00;100468.34;109805;1279;22656;-68
2023/02/15 01:26:07;;;;;;;3.90;1.10;;;;;;;0.81;100.00;100470.86;109784;1279;22234;-69
2023/02/15 01:28:36;;;;;;;2.40;0.80;;;;;;;0.81;100.00;100475.88;109770;1282;23349;-67
2023/02/15 01:31:09;;;;;;;4.00;1.10;;;;;;;0.79;100.00;100476.10;109560;1279;22461;-67
2023/02/15 01:33:39;;;;;;;4.10;1.10;;;;;;;0.77;100.00;100473.29;109701;1284;22424;-68
2023/02/15 01:36:10;;;;;;;3.30;1.00;;;;;;;0.76;100.00;100474.10;109831;1284;22220;-68
2023/02/15 01:38:42;;;;;;;4.10;1.00;;;;;;;0.81;100.00;100471.71;109789;1279;23089;-67
2023/02/15 01:41:19;;;;;;;4.10;1.10;;;;;;;0.84;100.00;100479.58;109977;1279;22325;-69
2023/02/15 01:43:51;;;;;;;4.70;1.80;;;;;;;0.83;100.00;100476.60;109965;1279;22240;-68
2023/02/15 01:46:22;;;;;;;4.50;1.50;;;;;;;0.84;100.00;100475.83;109900;1281;22288;-68
2023/02/15 01:48:54;;;;;;;3.80;1.20;;;;;;;0.82;100.00;100481.65;109797;1276;22203;-68
2023/02/15 01:51:23;;;;;;;3.40;1.10;;;;;;;0.83;100.00;100481.84;109915;1281;22221;-68
2023/02/15 01:53:54;;;;;;;2.90;0.90;;;;;;;0.85;100.00;100485.24;109821;1273;22221;-68
2023/02/15 01:56:29;;;;;;;5.80;1.20;;;;;;;0.91;100.00;100486.63;110009;1279;22302;-68
2023/02/15 01:58:59;;;;;;;4.20;1.20;;;;;;;0.94;100.00;100490.44;109934;1279;22857;-68
2023/02/15 02:01:27;;;;;;;5.80;1.40;;;;;;;0.89;100.00;100487.96;108677;1281;23042;-67
2023/02/15 02:04:35;;;;;;;2.70;0.90;;;;;;;0.84;100.00;100497.89;107226;1273;25350;-67
2023/02/15 02:07:04;;;;;;;3.20;1.10;;;;;;;0.79;100.00;100496.30;107316;1276;22646;-68
2023/02/15 02:09:32;;;;;;;5.20;1.50;;;;;;;0.73;100.00;100490.80;107062;1281;22613;-68
2023/02/15 02:12:00;;;;;;;3.40;0.70;;;;;;;0.71;100.00;100489.75;107293;1280;23037;-68
2023/02/15 02:14:28;;;;;;;3.00;1.20;;;;;;;0.73;100.00;100495.59;107300;1276;26666;-68
2023/02/15 02:17:17;;;;;;;2.30;0.80;;;;;;;0.71;100.00;100491.98;107444;1279;23311;-68
2023/02/15 02:20:08;;;;;;;3.50;0.90;;;;;;;0.66;100.00;100498.64;107302;1279;23307;-68
2023/02/15 02:22:40;;;;;;;3.40;0.80;;;;;;;0.62;100.00;100493.90;107288;1273;25372;-69
2023/02/15 02:25:27;;;;;;;2.80;0.80;;;;;;;0.57;100.00;100498.29;107416;1280;22574;-68
2023/02/15 02:28:19;;;;;;;2.40;0.90;;;;;;;0.60;100.00;100494.73;107377;1280;25596;-68
2023/02/15 02:30:49;;;;;;;2.40;0.80;;;;;;;0.56;100.00;100502.23;107136;1280;24320;-68
2023/02/15 02:33:54;;;;;;;2.40;1.00;;;;;;;0.48;100.00;100503.13;106997;1273;22545;-69
2023/02/15 02:36:41;;;;;;;3.10;1.00;;;;;;;0.45;100.00;100499.05;107469;1280;25434;-68
2023/02/15 02:39:23;;;;;;;3.30;1.30;;;;;;;0.40;100.00;100505.41;107281;1273;25382;-69
2023/02/15 02:42:14;;;;;;;3.40;1.30;;;;;;;0.42;100.00;100503.85;106988;1279;23747;-68
2023/02/15 02:44:43;;;;;;;3.90;1.30;;;;;;;0.46;100.00;100510.36;107180;1280;22645;-69
2023/02/15 02:47:18;;;;;;;3.90;1.30;;;;;;;0.42;100.00;100506.89;107108;1273;22529;-68
2023/02/15 02:49:47;;;;;;;3.80;1.60;;;;;;;0.40;100.00;100511.14;107240;1280;22589;-67
2023/02/15 02:52:34;;;;;;;2.90;1.00;;;;;;;0.38;100.00;100510.34;107325;1279;22546;-68
2023/02/15 02:55:04;;;;;;;3.30;0.90;;;;;;;0.36;100.00;100510.85;107553;1275;22659;-68
2023/02/15 02:57:32;;;;;;;2.60;0.70;;;;;;;0.34;100.00;100513.00;110137;1276;22304;-68
2023/02/15 03:00:02;;;;;;;4.30;0.90;;;;;;;0.32;100.00;100511.75;110154;1276;22245;-69
2023/02/15 03:02:32;;;;;;;2.20;0.60;;;;;;;0.33;100.00;100508.46;110176;1275;22213;-68
2023/02/15 03:05:07;;;;;;;3.70;0.90;;;;;;;0.36;100.00;100505.86;110397;1276;22276;-68
2023/02/15 03:07:35;;;;;;;2.10;0.50;;;;;;;0.44;100.00;100504.00;110158;1273;22291;-68
2023/02/15 03:10:05;;;;;;;2.30;0.70;;;;;;;0.44;100.00;100504.29;110386;1270;22410;-68
2023/02/15 03:12:39;;;;;;;1.50;0.60;;;;;;;0.43;100.00;100505.21;110114;1276;22189;-68
2023/02/15 03:15:23;;;;;;;2.90;0.80;;;;;;;0.41;100.00;100502.43;110088;1271;22453;-69
2023/02/15 03:17:58;;;;;;;3.40;0.70;;;;;;;0.39;100.00;100507.06;110034;1275;22236;-69
2023/02/15 03:20:32;;;;;;;2.90;0.90;;;;;;;0.39;100.00;100506.77;110218;1272;22184;-68
2023/02/15 03:23:13;;;;;;;2.40;0.80;;;;;;;0.38;100.00;100506.89;110154;1275;22420;-69
2023/02/15 03:25:43;;;;;;;4.60;1.10;;;;;;;0.40;100.00;100508.64;110285;1276;22272;-69
2023/02/15 03:28:15;;;;;;;3.10;0.90;;;;;;;0.47;100.00;100512.35;110174;1270;22797;-68
2023/02/15 03:30:45;;;;;;;2.80;0.80;;;;;;;0.48;100.00;100516.49;110223;1271;22208;-69
2023/02/15 03:33:13;;;;;;;2.40;0.90;;;;;;;0.45;100.00;100517.80;110250;1276;22178;-69
2023/02/15 03:35:44;;;;;;;2.20;0.90;;;;;;;0.43;100.00;100519.05;110291;1276;22279;-69
2023/02/15 03:38:13;;;;;;;2.60;0.90;;;;;;;0.42;100.00;100520.20;110304;1271;22979;-69
2023/02/15 03:43:49;;;;;;;3.00;1.40;;;;;;;0.38;100.00;100523.70;108942;1272;24153;-68
2023/02/15 03:46:22;;;;;;;3.90;1.00;;;;;;;0.35;100.00;100522.42;107392;1275;22534;-68
2023/02/15 03:48:59;;;;;;;3.20;0.80;;;;;;;0.39;100.00;100520.25;107307;1276;23296;-68
2023/02/15 03:51:34;;;;;;;;;;;;;;;0.42;100.00;100525.29;107448;1276;22495;-68
2023/02/15 03:54:12;;;;;;;2.70;0.80;;;;;;;0.36;100.00;100530.59;107623;1272;25396;-68
2023/02/15 03:56:41;;;;;;;4.80;1.00;;;;;;;0.29;100.00;100534.04;107547;1276;22616;-68
2023/02/15 04:02:20;;;;;;;3.60;0.90;;;;;;;0.25;100.00;100539.72;106935;1278;22548;-68
2023/02/15 04:04:49;;;;;;;6.50;1.30;;;;;;;0.27;100.00;100548.90;110161;1277;22285;-68
2023/02/15 04:07:17;;;;;;;4.50;1.40;;;;;;;0.28;100.00;100546.55;110220;1276;22193;-68
2023/02/15 04:12:32;;;;;;;4.60;1.50;;;;;;;0.28;100.00;100543.42;110226;1271;22221;-69
2023/02/15 04:17:49;;;;;;;3.90;1.40;;;;;;;0.27;100.00;100550.38;110257;1273;22443;-69
2023/02/15 04:25:53;;;;;;;6.80;1.50;;;;;;;0.14;100.00;100554.89;107548;1276;22550;-68
2023/02/15 04:28:21;;;;;;;3.60;1.60;;;;;;;0.07;100.00;100552.46;107426;1275;22562;-68
2023/02/15 04:30:49;;;;;;;4.30;1.40;;;;;;;0.04;100.00;100553.71;107264;1276;24394;-68
2023/02/15 04:33:18;;;;;;;4.50;1.40;;;;;;;0.07;100.00;100555.16;107295;1270;24189;-68
2023/02/15 04:35:46;;;;;;;3.30;1.30;;;;;;;0.10;100.00;100552.48;107194;1276;25354;-68
2023/02/15 04:38:17;;;;;;;4.00;1.20;;;;;;;0.08;100.00;100548.86;107397;1277;22555;-68
2023/02/15 04:40:50;;;;;;;3.50;1.20;;;;;;;0.05;100.00;100550.09;107455;1276;25415;-68
2023/02/15 04:43:19;;;;;;;3.90;1.40;;;;;;;0.02;100.00;100554.14;107536;1277;24005;-68
2023/02/15 04:45:49;;;;;;;3.10;1.20;;;;;;;0.00;100.00;100554.57;107474;1277;25495;-68
2023/02/15 04:48:17;;;;;;;3.60;1.00;;;;;;;-0.02;100.00;100557.59;107489;1276;25504;-67
2023/02/15 04:50:46;;;;;;;3.30;1.20;;;;;;;-0.04;100.00;100553.77;107542;1277;22631;-68
2023/02/15 04:53:16;;;;;;;2.60;1.00;;;;;;;-0.05;100.00;100562.08;107237;1278;26625;-68
2023/02/15 04:55:44;;;;;;;4.80;1.20;;;;;;;-0.05;100.00;100559.11;107152;1272;22547;-69
2023/02/15 04:58:12;;;;;;;4.20;1.50;;;;;;;-0.02;100.00;100562.27;107351;1277;26570;-68
2023/02/15 05:00:41;;;;;;;3.50;1.20;;;;;;;-0.02;100.00;100559.67;107753;1272;22500;-68
2023/02/15 05:03:09;;;;;;;3.80;1.20;;;;;;;-0.07;100.00;100567.75;107635;1276;25483;-69
2023/02/15 05:05:38;;;;;;;4.30;1.70;;;;;;;-0.11;100.00;100568.02;107454;1276;25366;-68
2023/02/15 05:08:07;;;;;;;2.90;1.10;;;;;;;-0.15;100.00;100571.59;107453;1270;23377;-67
2023/02/15 05:10:36;;;;;;;5.40;1.30;;;;;;;-0.23;100.00;100570.88;107641;1273;25418;-69
2023/02/15 05:13:04;;;;;;;4.60;1.60;;;;;;;-0.24;100.00;100571.70;107599;1276;23000;-68
2023/02/15 05:15:36;;;;;;;4.70;2.00;;;;;;;-0.26;100.00;100569.72;107585;1272;25344;-68
2023/02/15 05:18:06;;;;;;;6.80;2.20;;;;;;;-0.32;100.00;100576.06;107669;1270;22564;-68
2023/02/15 05:20:34;;;;;;;10.20;3.40;;;;;;;-0.38;100.00;100578.79;107595;1276;24962;-68
2023/02/15 05:23:02;;;;;;;12.90;4.20;;;;;;;-0.43;100.00;100583.48;107435;1276;25490;-68
2023/02/15 05:28:19;;;;;;;9.80;2.60;;;;;;;-0.35;100.00;100584.98;107699;1276;23317;-69
2023/02/15 05:30:48;;;;;;;10.10;2.60;;;;;;;-0.35;100.00;100593.73;107869;1276;22492;-68
2023/02/15 05:33:19;;;;;;;12.30;3.40;;;;;;;-0.35;100.00;100597.20;110159;1270;23184;-68
2023/02/15 05:35:47;;;;;;;13.00;4.10;;;;;;;-0.36;100.00;100599.36;110302;1276;22944;-68
2023/02/15 05:38:16;;;;;;;6.70;2.50;;;;;;;-0.35;100.00;100597.89;110331;1269;22357;-69
2023/02/15 05:40:44;;;;;;;4.20;1.30;;;;;;;-0.28;100.00;100600.77;110364;1276;22998;-67
2023/02/15 05:43:14;;;;;;;5.80;1.40;;;;;;;-0.29;100.00;100600.46;110400;1276;22195;-67
2023/02/15 05:45:53;;;;;;;4.30;1.40;;;;;;;-0.33;100.00;100608.91;110341;1276;22226;-68
2023/02/15 05:48:23;;;;;;;5.50;2.00;;;;;;;-0.36;100.00;100608.98;110327;1276;22342;-67
2023/02/15 05:50:59;;;;;;;6.50;1.40;;;;;;;-0.41;100.00;100605.50;110317;1273;23053;-67
2023/02/15 05:53:28;;;;;;;7.20;2.00;;;;;;;-0.39;100.00;100606.14;110360;1270;22519;-68
2023/02/15 05:55:58;;;;;;;5.90;2.30;;;;;;;-0.39;100.00;100604.44;110341;1273;23513;-69
2023/02/15 05:58:35;;;;;;;3.10;1.40;;;;;;;-0.40;100.00;100610.08;110347;1269;22428;-67
2023/02/15 06:01:14;;;;;;;4.30;1.70;;;;;;;-0.46;100.00;100612.15;110310;1276;22322;-68
2023/02/15 06:03:43;;;;;;;4.30;1.60;;;;;;;-0.52;100.00;100610.66;110254;1276;22463;-68
2023/02/15 06:06:11;;;;;;;9.10;2.90;;;;;;;-0.56;100.00;100613.17;110333;1269;23041;-67
2023/02/15 06:08:40;;;;;;;7.30;3.10;;;;;;;-0.56;100.00;100614.90;110323;1268;22458;-68
2023/02/15 06:11:08;;;;;;;5.80;2.40;;;;;;;-0.50;100.00;100610.27;110309;1272;22264;-68
2023/02/15 06:13:36;;;;;;;6.10;2.00;;;;;;;-0.51;100.00;100607.68;110302;1272;22518;-68
2023/02/15 06:16:06;;;;;;;4.00;1.90;;;;;;;-0.50;100.00;100612.65;109860;1273;22510;-68
2023/02/15 06:18:35;;;;;;;17.30;3.00;;;;;;;-0.49;100.00;100612.91;107630;1276;23898;-67
2023/02/15 06:21:03;;;;;;;5.40;2.10;;;;;;;-0.51;100.00;100612.23;107592;1275;22755;-67
2023/02/15 06:23:31;;;;;;;6.80;3.00;;;;;;;-0.50;100.00;100620.48;107528;1275;24295;-66
2023/02/15 06:25:59;;;;;;;5.20;2.30;;;;;;;-0.45;100.00;100625.86;107542;1276;23220;-67
2023/02/15 06:28:29;;;;;;;5.20;2.30;;;;;;;-0.35;100.00;100623.38;107625;1273;22527;-67
2023/02/15 06:30:57;;;;;;;6.00;1.90;;;;;;;-0.29;100.00;100624.49;107598;1276;23869;-68
2023/02/15 06:33:25;;;;;;;3.50;1.50;;;;;;;-0.25;100.00;100626.34;107545;1276;22598;-68
2023/02/15 06:35:53;;;;;;;6.50;2.50;;;;;;;-0.23;100.00;100629.73;107512;1276;24340;-67
2023/02/15 06:38:22;;;;;;;6.90;2.20;;;;;;;-0.17;100.00;100627.59;107444;1276;25354;-68
2023/02/15 06:40:50;;;;;;;5.60;2.10;;;;;;;-0.08;100.00;100634.74;107440;1261;22535;-68
2023/02/15 06:43:18;;;;;;;5.90;1.80;;;;;;;0.06;100.00;100632.75;107572;1276;24282;-68
2023/02/15 06:45:46;;;;;;;5.70;2.00;;;;;;;0.19;100.00;100633.98;108402;1276;22305;-69
2023/02/15 06:48:15;;;;;;;4.50;1.50;;;;;;;0.34;100.00;100635.36;110425;1276;23197;-69
2023/02/15 06:50:43;;;;;;;7.50;2.00;;;;;;;0.50;100.00;100626.30;110393;1276;22334;-69
2023/02/15 06:53:11;;;;;;;4.60;2.10;;;;;;;0.63;100.00;100627.96;110401;1276;22264;-68
2023/02/15 06:55:39;;;;;;;4.30;1.60;;;;;;;0.78;100.00;100626.02;108490;1273;22515;-68
2023/02/15 06:58:07;;;;;;;4.80;1.80;;;;;;;0.88;100.00;100629.29;107559;1276;23003;-68
2023/02/15 07:00:36;;;;;;;5.10;1.70;;;;;;;0.93;100.00;100620.51;107456;1276;22523;-70
2023/02/15 07:03:04;;;;;;;5.40;1.60;;;;;;;1.03;100.00;100616.95;107502;1276;22992;-70
2023/02/15 07:05:33;;;;;;;3.80;1.60;;;;;;;1.13;100.00;100621.65;107598;1276;24212;-70
2023/02/15 07:08:01;;;;;;;4.30;1.70;;;;;;;1.25;100.00;100617.00;107483;1276;22611;-70
2023/02/15 07:10:32;;;;;;;6.90;2.00;;;;;;;1.36;100.00;100620.48;107404;1277;25364;-70
2023/02/15 07:13:00;;;;;;;7.00;2.20;;;;;;;1.37;100.00;100617.37;107488;1275;22612;-70
2023/02/15 07:15:32;;;;;;;4.20;1.60;;;;;;;1.39;100.00;100617.93;107474;1276;23207;-70
2023/02/15 07:18:00;;;;;;;3.70;1.20;;;;;;;1.37;100.00;100614.05;107536;1276;25252;-71
2023/02/15 07:20:29;;;;;;;5.00;1.50;;;;;;;1.36;100.00;100609.60;107434;1276;26632;-69
2023/02/15 07:22:57;;;;;;;3.90;1.90;;;;;;;1.34;100.00;100609.60;107403;1276;27614;-70
2023/02/15 07:25:26;;;;;;;2.90;1.40;;;;;;;1.42;100.00;100606.45;107814;1270;23966;-70
2023/02/15 07:27:58;;;;;;;3.80;1.50;;;;;;;1.49;100.00;100607.21;107418;1274;22551;-70
2023/02/15 07:30:26;;;;;;;3.30;1.20;;;;;;;1.43;100.00;100610.06;108079;1270;22624;-70
2023/02/15 07:35:55;;;;;;;5.70;2.00;;;;;;;1.45;100.00;100608.49;107335;1277;26159;-71
2023/02/15 07:38:24;;;;;;;5.50;2.00;;;;;;;1.46;100.00;100616.02;107302;1276;25362;-71
2023/02/15 07:41:00;;;;;;;5.10;1.40;;;;;;;1.54;100.00;100616.67;107472;1276;25350;-71
2023/02/15 07:43:30;;;;;;;6.00;2.50;;;;;;;1.56;100.00;100615.49;107431;1276;22528;-71
2023/02/15 07:46:02;;;;;;;4.90;1.80;;;;;;;1.53;100.00;100613.48;107379;1276;22733;-71
2023/02/15 07:48:31;;;;;;;4.40;1.90;;;;;;;1.51;100.00;100614.25;108077;1276;23806;-71
2023/02/15 07:51:04;;;;;;;3.30;1.50;;;;;;;1.56;100.00;100616.03;107606;1276;23249;-71
2023/02/15 07:53:33;;;;;;;3.40;1.70;;;;;;;1.62;100.00;100621.34;107586;1276;22666;-71
2023/02/15 07:56:07;;;;;;;3.00;1.20;;;;;;;1.65;100.00;100619.67;107579;1276;23939;-70
2023/02/15 07:58:52;;;;;;;3.30;1.30;;;;;;;1.62;100.00;100621.38;107617;1270;26576;-70
2023/02/15 08:01:30;;;;;;;4.10;1.30;;;;;;;1.54;100.00;100620.05;107619;1276;23303;-70
2023/02/15 08:03:58;;;;;;;3.50;1.50;;;;;;;1.55;100.00;100618.54;107511;1276;25020;-71
2023/02/15 08:06:28;;;;;;;4.30;1.50;;;;;;;1.64;100.00;100628.20;107495;1272;23282;-71
2023/02/15 08:08:56;;;;;;;3.50;1.30;;;;;;;1.74;100.00;100627.19;107593;1270;22603;-71
2023/02/15 08:11:33;;;;;;;4.70;2.00;;;;;;;1.82;100.00;100629.29;107997;1276;23405;-70
2023/02/15 08:14:11;;;;;;;6.10;2.50;;;;;;;1.90;100.00;100633.60;107490;1276;22720;-70
2023/02/15 08:16:50;;;;;;;5.90;2.20;;;;;;;2.05;100.00;100634.97;107519;1276;26153;-71
2023/02/15 08:19:31;;;;;;;5.40;1.50;;;;;;;2.11;100.00;100637.98;107680;1274;27572;-70
2023/02/15 08:22:04;;;;;;;2.80;1.10;;;;;;;2.04;100.00;100633.51;107389;1276;25554;-70
2023/02/15 08:24:38;;;;;;;3.30;1.40;;;;;;;1.99;100.00;100638.77;107258;1276;24429;-71
2023/02/15 08:27:08;;;;;;;3.40;1.50;;;;;;;2.06;100.00;100638.85;107502;1277;24210;-71
2023/02/15 08:29:37;;;;;;;3.40;1.40;;;;;;;2.20;100.00;100633.96;107534;1276;22749;-71
2023/02/15 08:32:08;;;;;;;3.70;1.20;;;;;;;2.26;100.00;100640.70;107548;1276;23314;-71
2023/02/15 08:34:39;;;;;;;3.80;1.40;;;;;;;2.28;100.00;100643.24;107561;1270;23332;-70
2023/02/15 08:37:09;;;;;;;5.10;1.60;;;;;;;2.32;100.00;100640.46;107375;1277;26153;-70
2023/02/15 08:39:37;;;;;;;5.90;1.80;;;;;;;2.33;100.00;100635.70;107246;1277;22604;-70
2023/02/15 08:42:05;;;;;;;5.10;1.50;;;;;;;2.39;100.00;100637.49;107261;1277;23432;-71
2023/02/15 08:44:35;;;;;;;4.50;1.90;;;;;;;2.52;100.00;100625.16;107327;1276;23419;-71
2023/02/15 08:47:04;;;;;;;2.70;1.40;;;;;;;2.53;100.00;100627.48;107654;1276;25504;-71
2023/02/15 08:49:32;;;;;;;6.40;1.90;;;;;;;2.34;100.00;100635.14;107556;1276;22554;-71
2023/02/15 08:52:00;;;;;;;4.50;1.60;;;;;;;2.11;100.00;100633.98;107536;1276;26900;-71
2023/02/15 08:54:29;;;;;;;4.50;1.60;;;;;;;2.03;100.00;100630.07;107556;1273;25342;-71
2023/02/15 08:56:58;;;;;;;4.00;1.30;;;;;;;1.98;100.00;100629.00;107471;1276;23776;-71
2023/02/15 08:59:27;;;;;;;4.40;1.50;;;;;;;2.00;100.00;100631.58;110307;1270;22433;-71
2023/02/15 09:01:55;;;;;;;4.40;1.70;;;;;;;1.91;100.00;100629.77;110320;1272;22438;-72
2023/02/15 09:04:23;;;;;;;3.30;1.50;;;;;;;1.93;100.00;100627.84;110396;1275;22226;-71
2023/02/15 09:06:52;;;;;;;3.60;1.70;;;;;;;2.02;100.00;100627.63;109451;1275;24082;-71
2023/02/15 09:09:22;;;;;;;4.70;1.50;;;;;;;2.13;100.00;100626.23;107536;1275;22562;-72
2023/02/15 09:11:50;;;;;;;4.60;1.80;;;;;;;2.17;100.00;100628.95;107280;1275;25195;-70
2023/02/15 09:14:26;;;;;;;5.40;1.60;;;;;;;2.29;100.00;100636.68;107468;1275;23063;-71
2023/02/15 09:16:55;;;;;;;3.90;1.60;;;;;;;2.44;100.00;100635.05;108263;1275;22322;-71
2023/02/15 09:19:24;;;;;;;4.10;1.60;;;;;;;2.58;100.00;100630.87;110324;1276;22311;-72
2023/02/15 09:21:53;;;;;;;2.30;1.30;;;;;;;2.66;100.00;100638.18;110398;1275;22936;-72
2023/02/15 09:24:22;;;;;;;4.70;1.40;;;;;;;2.66;100.00;100639.80;110420;1275;23096;-72
2023/02/15 09:26:53;;;;;;;3.90;1.60;;;;;;;2.68;100.00;100636.33;109011;1275;22953;-71
2023/02/15 09:29:22;;;;;;;3.30;1.30;;;;;;;2.69;100.00;100642.59;107294;1275;22614;-70
2023/02/15 09:31:50;;;;;;;3.50;1.40;;;;;;;2.71;100.00;100637.64;107446;1272;22558;-70
2023/02/15 09:34:20;;;;;;;4.60;1.60;;;;;;;2.68;100.00;100630.25;107500;1274;23250;-70
2023/02/15 09:36:49;;;;;;;3.30;1.30;;;;;;;2.61;100.00;100627.49;107711;1270;22560;-70
2023/02/15 09:39:25;;;;;;;3.60;1.50;;;;;;;2.60;100.00;100634.89;107619;1273;23388;-70
2023/02/15 09:42:15;;;;;;;4.10;1.20;;;;;;;2.65;100.00;100629.95;110348;1275;22319;-70
2023/02/15 09:45:25;;;;;;;3.60;1.20;;;;;;;2.73;100.00;100630.57;109733;1274;24216;-70
2023/02/15 09:48:03;;;;;;;6.20;1.60;;;;;;;2.85;100.00;100623.10;107317;1273;23460;-70
2023/02/15 09:50:39;;;;;;;3.80;1.30;;;;;;;2.86;100.00;100622.69;107369;1270;25549;-70
2023/02/15 09:53:16;;;;;;;4.90;1.60;;;;;;;2.83;100.00;100623.63;107471;1271;23334;-69
2023/02/15 09:55:45;;;;;;;;;;;;;;;2.85;100.00;100618.52;107510;1275;24177;-70
2023/02/15 09:58:22;;;;;;;3.70;1.40;;;;;;;2.83;100.00;100619.75;107657;1272;22993;-71
2023/02/15 10:01:19;;;;;;;4.70;1.50;;;;;;;2.90;100.00;100619.84;107549;1275;22906;-71
2023/02/15 10:03:55;;;;;;;3.50;1.50;;;;;;;2.91;100.00;100614.77;107276;1275;26173;-71
2023/02/15 10:06:27;;;;;;;3.30;1.10;;;;;;;2.90;100.00;100613.11;107490;1273;25812;-70
2023/02/15 10:09:14;;;;;;;3.80;1.20;;;;;;;2.95;100.00;100615.66;108068;1273;22563;-72
2023/02/15 10:11:55;;;;;;;5.10;1.50;;;;;;;3.04;100.00;100616.11;107451;1275;22538;-71
2023/02/15 10:15:14;;;;;;;4.40;1.60;;;;;;;2.99;100.00;100604.01;107580;1274;25353;-71
2023/02/15 10:18:23;;;;;;;3.90;1.50;;;;;;;2.91;100.00;100609.80;107073;1283;26895;-72
2023/02/15 10:21:20;;;;;;;4.30;1.10;;;;;;;2.88;100.00;100614.72;107633;1275;26487;-71
2023/02/15 10:24:24;;;;;;;4.00;1.40;;;;;;;2.89;100.00;100613.98;107468;1275;22552;-71
2023/02/15 10:26:53;;;;;;;4.50;1.40;;;;;;;2.98;100.00;100608.59;107534;1275;23234;-71
2023/02/15 10:29:37;;;;;;;4.50;1.60;;;;;;;3.01;100.00;100610.01;107357;1275;22578;-71
2023/02/15 10:32:23;;;;;;;4.20;1.60;;;;;;;3.03;100.00;100604.44;107414;1275;23108;-71
2023/02/15 10:35:00;;;;;;;3.90;1.30;;;;;;;2.98;100.00;100598.83;107601;1273;25182;-71
2023/02/15 10:37:57;;;;;;;3.60;1.30;;;;;;;3.00;100.00;100598.16;107698;1275;22531;-71
2023/02/15 10:40:46;;;;;;;2.40;1.00;;;;;;;3.07;100.00;100596.63;107694;1271;23285;-71
2023/02/15 10:43:45;;;;;;;3.10;1.00;;;;;;;3.09;100.00;100592.65;107365;1275;25325;-71
2023/02/15 10:46:17;;;;;;;4.40;1.60;;;;;;;3.10;100.00;100592.73;107438;1275;22558;-71
2023/02/15 10:49:20;;;;;;;5.50;1.00;;;;;;;3.12;100.00;100593.37;107464;1275;25371;-72
2023/02/15 10:52:10;;;;;;;4.50;0.90;;;;;;;3.12;100.00;100586.95;107400;1275;22641;-71
2023/02/15 10:54:49;;;;;;;2.40;1.00;;;;;;;3.09;100.00;100586.64;107540;1275;26168;-71
2023/02/15 10:57:28;;;;;;;2.50;1.00;;;;;;;3.15;100.00;100583.23;107529;1275;22553;-71
2023/02/15 11:00:00;;;;;;;1.50;0.50;;;;;;;3.25;100.00;100582.31;107465;1275;22542;-70
2023/02/15 11:03:16;;;;;;;2.60;1.00;;;;;;;3.31;100.00;100583.81;107527;1275;27740;-70
2023/02/15 11:05:54;;;;;;;4.70;1.00;;;;;;;3.46;100.00;100580.73;107019;1276;22554;-70
2023/02/15 11:08:25;;;;;;;3.50;1.00;;;;;;;3.52;100.00;100579.36;107383;1275;25322;-70
2023/02/15 11:11:02;;;;;;;3.60;0.90;;;;;;;3.52;100.00;100580.99;107570;1273;26172;-70
2023/02/15 11:13:39;;;;;;;4.70;1.30;;;;;;;3.57;100.00;100579.83;107648;1275;26528;-70
2023/02/15 11:16:11;;;;;;;6.50;1.40;;;;;;;3.66;100.00;100576.08;107559;1275;22516;-71
2023/02/15 11:18:48;;;;;;;2.20;1.00;;;;;;;3.80;100.00;100579.54;107645;1271;22572;-69
2023/02/15 11:21:26;;;;;;;2.90;1.00;;;;;;;3.96;100.00;100576.14;107414;1275;22610;-70
2023/02/15 11:23:54;;;;;;;3.10;1.50;;;;;;;4.15;100.00;100569.33;107383;1275;26665;-71
2023/02/15 11:26:28;;;;;;;2.60;1.20;;;;;;;4.25;100.00;100569.10;107537;1275;22678;-70
2023/02/15 11:29:31;;;;;;;4.30;0.70;;;;;;;4.44;100.00;100572.79;107513;1275;22751;-70
2023/02/15 11:32:13;;;;;;;2.60;1.10;;;;;;;4.48;100.00;100577.91;107463;1273;24208;-71
2023/02/15 11:34:52;;;;;;;3.80;2.00;;;;;;;4.51;100.00;100577.83;107618;1269;22551;-70
2023/02/15 11:37:24;;;;;;;3.80;1.10;;;;;;;4.58;100.00;100573.57;107507;1275;24373;-71
2023/02/15 11:39:54;;;;;;;2.80;0.80;;;;;;;4.76;100.00;100577.33;107673;1270;22523;-70
2023/02/15 11:42:23;;;;;;;2.30;0.70;;;;;;;4.89;100.00;100572.29;107647;1275;23496;-71
2023/02/15 11:45:40;;;;;;;2.70;1.00;;;;;;;4.96;100.00;100567.56;110297;1275;22924;-71
2023/02/15 11:48:12;;;;;;;2.50;0.80;;;;;;;5.02;100.00;100575.42;107534;1273;25414;-70
2023/02/15 11:50:41;;;;;;;2.80;1.10;;;;;;;5.02;100.00;100567.04;108007;1271;23219;-70
2023/02/15 11:53:21;;;;;;;5.20;1.50;;;;;;;5.09;97.68;100569.41;107622;1270;22517;-71
2023/02/15 11:55:50;;;;;;;2.30;0.90;;;;;;;5.07;93.94;100566.30;107697;1272;23292;-71
2023/02/15 11:58:34;;;;;;;2.20;0.80;;;;;;;5.08;94.86;100565.63;107674;1275;22639;-71
2023/02/15 12:01:16;;;;;;;2.50;0.80;;;;;;;5.13;93.39;100556.31;107420;1275;25094;-70
2023/02/15 12:03:50;;;;;;;2.70;0.80;;;;;;;5.17;92.96;100563.76;108777;1276;23374;-71
2023/02/15 12:06:20;;;;;;;2.00;0.60;;;;;;;5.18;86.46;100566.45;108402;1275;26361;-71
2023/02/15 12:08:54;;;;;;;2.70;1.00;;;;;;;5.14;81.84;100562.61;107377;1275;25351;-71